sensor_id;sensor_type;location;lat;lon;timestamp;P1;durP1;ratioP1;P2;durP2;ratioP2
72261;SDS011;60173;52.112;8.648;2023-04-03T00:01:46;7.18;;;2.05;;
72261;SDS011;60173;52.112;8.648;2023-04-03T00:04:12;5.15;;;1.30;;
72261;SDS011;60173;52.112;8.648;2023-04-03T00:06:39;9.50;;;2.60;;
72261;SDS011;60173;52.112;8.648;2023-04-03T00:09:05;8.27;;;1.70;;
72261;SDS011;60173;52.112;8.648;2023-04-03T00:11:34;11.15;;;2.00;;
72261;SDS011;60173;52.112;8.648;2023-04-03T00:14:00;8.00;;;1.80;;
72261;SDS011;60173;52.112;8.648;2023-04-03T00:16:27;6.35;;;1.77;;
72261;SDS011;60173;52.112;8.648;2023-04-03T00:18:53;6.93;;;1.80;;
72261;SDS011;60173;52.112;8.648;2023-04-03T00:21:19;6.20;;;1.60;;
72261;SDS011;60173;52.112;8.648;2023-04-03T00:23:46;6.28;;;1.95;;
72261;SDS011;60173;52.112;8.648;2023-04-03T00:26:12;6.05;;;1.92;;
72261;SDS011;60173;52.112;8.648;2023-04-03T00:28:39;5.40;;;1.92;;
72261;SDS011;60173;52.112;8.648;2023-04-03T00:31:05;10.73;;;2.00;;
72261;SDS011;60173;52.112;8.648;2023-04-03T00:33:31;9.52;;;1.92;;
72261;SDS011;60173;52.112;8.648;2023-04-03T00:35:58;9.10;;;1.50;;
72261;SDS011;60173;52.112;8.648;2023-04-03T00:38:24;4.90;;;1.77;;
72261;SDS011;60173;52.112;8.648;2023-04-03T00:40:51;6.95;;;1.92;;
72261;SDS011;60173;52.112;8.648;2023-04-03T00:43:21;7.68;;;2.15;;
72261;SDS011;60173;52.112;8.648;2023-04-03T00:45:51;7.55;;;2.17;;
72261;SDS011;60173;52.112;8.648;2023-04-03T00:51:00;8.48;;;1.98;;
72261;SDS011;60173;52.112;8.648;2023-04-03T00:53:31;4.22;;;1.45;;
72261;SDS011;60173;52.112;8.648;2023-04-03T00:56:01;5.97;;;1.98;;
72261;SDS011;60173;52.112;8.648;2023-04-03T00:58:37;9.82;;;2.38;;
72261;SDS011;60173;52.112;8.648;2023-04-03T01:01:08;12.75;;;2.40;;
72261;SDS011;60173;52.112;8.648;2023-04-03T01:03:40;7.10;;;1.77;;
72261;SDS011;60173;52.112;8.648;2023-04-03T01:06:06;5.65;;;2.15;;
72261;SDS011;60173;52.112;8.648;2023-04-03T01:08:33;7.95;;;2.00;;
72261;SDS011;60173;52.112;8.648;2023-04-03T01:11:00;5.63;;;1.95;;
72261;SDS011;60173;52.112;8.648;2023-04-03T01:13:31;4.57;;;1.90;;
72261;SDS011;60173;52.112;8.648;2023-04-03T01:16:02;8.32;;;1.85;;
72261;SDS011;60173;52.112;8.648;2023-04-03T01:18:30;4.90;;;2.20;;
72261;SDS011;60173;52.112;8.648;2023-04-03T01:23:45;5.23;;;2.00;;
72261;SDS011;60173;52.112;8.648;2023-04-03T01:26:30;10.90;;;2.10;;
72261;SDS011;60173;52.112;8.648;2023-04-03T01:28:58;7.85;;;2.10;;
72261;SDS011;60173;52.112;8.648;2023-04-03T01:31:38;10.55;;;2.17;;
72261;SDS011;60173;52.112;8.648;2023-04-03T01:34:18;4.60;;;1.73;;
72261;SDS011;60173;52.112;8.648;2023-04-03T01:36:45;9.40;;;2.33;;
72261;SDS011;60173;52.112;8.648;2023-04-03T01:39:11;5.95;;;2.13;;
72261;SDS011;60173;52.112;8.648;2023-04-03T01:41:38;8.00;;;2.03;;
72261;SDS011;60173;52.112;8.648;2023-04-03T01:44:04;4.90;;;1.60;;
72261;SDS011;60173;52.112;8.648;2023-04-03T01:46:31;7.85;;;2.03;;
72261;SDS011;60173;52.112;8.648;2023-04-03T01:48:58;4.75;;;1.98;;
72261;SDS011;60173;52.112;8.648;2023-04-03T01:51:24;7.22;;;2.00;;
72261;SDS011;60173;52.112;8.648;2023-04-03T01:53:50;10.50;;;2.20;;
72261;SDS011;60173;52.112;8.648;2023-04-03T01:56:17;10.57;;;2.22;;
72261;SDS011;60173;52.112;8.648;2023-04-03T01:58:43;8.95;;;2.17;;
72261;SDS011;60173;52.112;8.648;2023-04-03T02:01:09;5.93;;;1.80;;
72261;SDS011;60173;52.112;8.648;2023-04-03T02:03:36;7.10;;;2.05;;
72261;SDS011;60173;52.112;8.648;2023-04-03T02:06:02;9.05;;;2.35;;
72261;SDS011;60173;52.112;8.648;2023-04-03T02:08:28;6.97;;;2.22;;
72261;SDS011;60173;52.112;8.648;2023-04-03T02:10:55;11.75;;;2.33;;
72261;SDS011;60173;52.112;8.648;2023-04-03T02:13:21;8.73;;;2.38;;
72261;SDS011;60173;52.112;8.648;2023-04-03T02:15:47;8.23;;;1.85;;
72261;SDS011;60173;52.112;8.648;2023-04-03T02:18:14;5.93;;;2.25;;
72261;SDS011;60173;52.112;8.648;2023-04-03T02:20:40;11.70;;;2.60;;
72261;SDS011;60173;52.112;8.648;2023-04-03T02:23:07;9.27;;;2.50;;
72261;SDS011;60173;52.112;8.648;2023-04-03T02:25:33;11.85;;;2.30;;
72261;SDS011;60173;52.112;8.648;2023-04-03T02:28:03;8.00;;;2.13;;
72261;SDS011;60173;52.112;8.648;2023-04-03T02:30:29;7.05;;;2.33;;
72261;SDS011;60173;52.112;8.648;2023-04-03T02:32:55;11.82;;;2.17;;
72261;SDS011;60173;52.112;8.648;2023-04-03T02:35:22;8.35;;;2.05;;
72261;SDS011;60173;52.112;8.648;2023-04-03T02:37:48;6.47;;;1.42;;
72261;SDS011;60173;52.112;8.648;2023-04-03T02:40:14;8.73;;;1.90;;
72261;SDS011;60173;52.112;8.648;2023-04-03T02:42:41;6.28;;;2.00;;
72261;SDS011;60173;52.112;8.648;2023-04-03T02:45:07;11.98;;;2.35;;
72261;SDS011;60173;52.112;8.648;2023-04-03T02:47:34;7.05;;;2.15;;
72261;SDS011;60173;52.112;8.648;2023-04-03T02:50:00;10.57;;;2.38;;
72261;SDS011;60173;52.112;8.648;2023-04-03T02:52:26;8.98;;;2.10;;
72261;SDS011;60173;52.112;8.648;2023-04-03T02:54:53;8.73;;;2.28;;
72261;SDS011;60173;52.112;8.648;2023-04-03T02:57:19;10.02;;;2.20;;
72261;SDS011;60173;52.112;8.648;2023-04-03T02:59:45;8.98;;;1.88;;
72261;SDS011;60173;52.112;8.648;2023-04-03T03:02:12;11.68;;;2.38;;
72261;SDS011;60173;52.112;8.648;2023-04-03T03:04:38;11.38;;;2.30;;
72261;SDS011;60173;52.112;8.648;2023-04-03T03:07:04;13.00;;;2.33;;
72261;SDS011;60173;52.112;8.648;2023-04-03T03:09:31;7.53;;;2.15;;
72261;SDS011;60173;52.112;8.648;2023-04-03T03:11:58;9.10;;;2.88;;
72261;SDS011;60173;52.112;8.648;2023-04-03T03:14:24;11.05;;;2.65;;
72261;SDS011;60173;52.112;8.648;2023-04-03T03:16:50;8.82;;;2.50;;
72261;SDS011;60173;52.112;8.648;2023-04-03T03:19:17;9.45;;;1.65;;
72261;SDS011;60173;52.112;8.648;2023-04-03T03:21:43;10.07;;;2.25;;
72261;SDS011;60173;52.112;8.648;2023-04-03T03:24:09;11.15;;;3.45;;
72261;SDS011;60173;52.112;8.648;2023-04-03T03:26:36;9.40;;;2.90;;
72261;SDS011;60173;52.112;8.648;2023-04-03T03:29:02;14.88;;;3.13;;
72261;SDS011;60173;52.112;8.648;2023-04-03T03:31:28;7.38;;;2.50;;
72261;SDS011;60173;52.112;8.648;2023-04-03T03:33:55;10.43;;;2.90;;
72261;SDS011;60173;52.112;8.648;2023-04-03T03:36:21;9.50;;;2.85;;
72261;SDS011;60173;52.112;8.648;2023-04-03T03:38:48;8.20;;;2.83;;
72261;SDS011;60173;52.112;8.648;2023-04-03T03:41:14;13.07;;;2.45;;
72261;SDS011;60173;52.112;8.648;2023-04-03T03:43:40;7.65;;;2.63;;
72261;SDS011;60173;52.112;8.648;2023-04-03T03:46:07;8.57;;;2.22;;
72261;SDS011;60173;52.112;8.648;2023-04-03T03:48:33;10.35;;;2.63;;
72261;SDS011;60173;52.112;8.648;2023-04-03T03:50:59;10.80;;;2.85;;
72261;SDS011;60173;52.112;8.648;2023-04-03T03:53:26;7.50;;;1.77;;
72261;SDS011;60173;52.112;8.648;2023-04-03T03:55:52;8.68;;;2.55;;
72261;SDS011;60173;52.112;8.648;2023-04-03T03:58:18;9.32;;;2.05;;
72261;SDS011;60173;52.112;8.648;2023-04-03T04:00:45;4.18;;;1.75;;
72261;SDS011;60173;52.112;8.648;2023-04-03T04:03:11;8.35;;;2.25;;
72261;SDS011;60173;52.112;8.648;2023-04-03T04:05:37;10.13;;;2.17;;
72261;SDS011;60173;52.112;8.648;2023-04-03T04:08:04;8.75;;;2.20;;
72261;SDS011;60173;52.112;8.648;2023-04-03T04:10:31;7.93;;;2.17;;
72261;SDS011;60173;52.112;8.648;2023-04-03T04:12:57;8.25;;;2.45;;
72261;SDS011;60173;52.112;8.648;2023-04-03T04:15:24;12.52;;;2.60;;
72261;SDS011;60173;52.112;8.648;2023-04-03T04:17:50;11.07;;;2.67;;
72261;SDS011;60173;52.112;8.648;2023-04-03T04:20:17;11.32;;;2.60;;
72261;SDS011;60173;52.112;8.648;2023-04-03T04:22:43;8.32;;;2.53;;
72261;SDS011;60173;52.112;8.648;2023-04-03T04:25:09;7.85;;;2.60;;
72261;SDS011;60173;52.112;8.648;2023-04-03T04:27:36;7.40;;;2.90;;
72261;SDS011;60173;52.112;8.648;2023-04-03T04:30:02;11.52;;;2.85;;
72261;SDS011;60173;52.112;8.648;2023-04-03T04:32:29;11.45;;;2.55;;
72261;SDS011;60173;52.112;8.648;2023-04-03T04:34:56;11.90;;;3.20;;
72261;SDS011;60173;52.112;8.648;2023-04-03T04:37:22;12.20;;;2.65;;
72261;SDS011;60173;52.112;8.648;2023-04-03T04:39:49;14.35;;;2.97;;
72261;SDS011;60173;52.112;8.648;2023-04-03T04:42:15;9.38;;;2.95;;
72261;SDS011;60173;52.112;8.648;2023-04-03T04:44:43;13.80;;;3.08;;
72261;SDS011;60173;52.112;8.648;2023-04-03T04:47:09;10.85;;;2.50;;
72261;SDS011;60173;52.112;8.648;2023-04-03T04:49:35;13.45;;;2.80;;
72261;SDS011;60173;52.112;8.648;2023-04-03T04:52:02;9.93;;;2.63;;
72261;SDS011;60173;52.112;8.648;2023-04-03T04:54:28;9.38;;;3.03;;
72261;SDS011;60173;52.112;8.648;2023-04-03T04:56:54;8.57;;;2.50;;
72261;SDS011;60173;52.112;8.648;2023-04-03T04:59:21;9.15;;;2.88;;
72261;SDS011;60173;52.112;8.648;2023-04-03T05:01:47;11.88;;;3.15;;
72261;SDS011;60173;52.112;8.648;2023-04-03T05:04:14;9.00;;;2.72;;
72261;SDS011;60173;52.112;8.648;2023-04-03T05:06:40;7.07;;;2.67;;
72261;SDS011;60173;52.112;8.648;2023-04-03T05:09:07;11.65;;;2.97;;
72261;SDS011;60173;52.112;8.648;2023-04-03T05:11:33;12.82;;;2.88;;
72261;SDS011;60173;52.112;8.648;2023-04-03T05:13:59;8.55;;;3.15;;
72261;SDS011;60173;52.112;8.648;2023-04-03T05:16:26;14.60;;;3.75;;
72261;SDS011;60173;52.112;8.648;2023-04-03T05:18:52;17.13;;;3.83;;
72261;SDS011;60173;52.112;8.648;2023-04-03T05:21:18;11.45;;;2.80;;
72261;SDS011;60173;52.112;8.648;2023-04-03T05:23:45;10.95;;;3.28;;
72261;SDS011;60173;52.112;8.648;2023-04-03T05:26:11;10.45;;;2.95;;
72261;SDS011;60173;52.112;8.648;2023-04-03T05:28:38;14.27;;;3.60;;
72261;SDS011;60173;52.112;8.648;2023-04-03T05:31:04;9.18;;;3.13;;
72261;SDS011;60173;52.112;8.648;2023-04-03T05:33:30;14.40;;;2.97;;
72261;SDS011;60173;52.112;8.648;2023-04-03T05:35:57;12.13;;;3.05;;
72261;SDS011;60173;52.112;8.648;2023-04-03T05:38:29;14.80;;;2.85;;
72261;SDS011;60173;52.112;8.648;2023-04-03T05:40:55;10.38;;;2.92;;
72261;SDS011;60173;52.112;8.648;2023-04-03T05:43:21;9.27;;;2.90;;
72261;SDS011;60173;52.112;8.648;2023-04-03T05:45:48;9.02;;;3.30;;
72261;SDS011;60173;52.112;8.648;2023-04-03T05:48:14;12.80;;;3.60;;
72261;SDS011;60173;52.112;8.648;2023-04-03T05:50:40;11.90;;;3.63;;
72261;SDS011;60173;52.112;8.648;2023-04-03T05:53:07;7.05;;;2.70;;
72261;SDS011;60173;52.112;8.648;2023-04-03T05:55:41;9.93;;;2.13;;
72261;SDS011;60173;52.112;8.648;2023-04-03T05:58:08;16.42;;;3.13;;
72261;SDS011;60173;52.112;8.648;2023-04-03T06:00:36;23.75;;;5.05;;
72261;SDS011;60173;52.112;8.648;2023-04-03T06:03:03;17.35;;;3.92;;
72261;SDS011;60173;52.112;8.648;2023-04-03T06:05:29;14.27;;;3.30;;
72261;SDS011;60173;52.112;8.648;2023-04-03T06:07:56;13.38;;;2.92;;
72261;SDS011;60173;52.112;8.648;2023-04-03T06:10:22;7.32;;;2.45;;
72261;SDS011;60173;52.112;8.648;2023-04-03T06:12:49;9.48;;;2.42;;
72261;SDS011;60173;52.112;8.648;2023-04-03T06:15:16;5.10;;;2.38;;
72261;SDS011;60173;52.112;8.648;2023-04-03T06:17:43;10.25;;;2.08;;
72261;SDS011;60173;52.112;8.648;2023-04-03T06:20:09;8.10;;;2.53;;
72261;SDS011;60173;52.112;8.648;2023-04-03T06:22:36;7.35;;;2.13;;
72261;SDS011;60173;52.112;8.648;2023-04-03T06:25:03;9.15;;;2.28;;
72261;SDS011;60173;52.112;8.648;2023-04-03T06:27:30;8.95;;;2.50;;
72261;SDS011;60173;52.112;8.648;2023-04-03T06:29:56;8.85;;;2.40;;
72261;SDS011;60173;52.112;8.648;2023-04-03T06:32:22;6.95;;;2.10;;
72261;SDS011;60173;52.112;8.648;2023-04-03T06:34:49;10.23;;;2.20;;
72261;SDS011;60173;52.112;8.648;2023-04-03T06:37:19;12.77;;;3.05;;
72261;SDS011;60173;52.112;8.648;2023-04-03T06:39:47;10.00;;;2.20;;
72261;SDS011;60173;52.112;8.648;2023-04-03T06:42:13;8.48;;;2.30;;
72261;SDS011;60173;52.112;8.648;2023-04-03T06:44:40;7.15;;;2.08;;
72261;SDS011;60173;52.112;8.648;2023-04-03T06:47:06;6.57;;;2.30;;
72261;SDS011;60173;52.112;8.648;2023-04-03T06:49:32;6.47;;;1.88;;
72261;SDS011;60173;52.112;8.648;2023-04-03T06:51:59;7.18;;;2.10;;
72261;SDS011;60173;52.112;8.648;2023-04-03T06:54:27;6.90;;;1.98;;
72261;SDS011;60173;52.112;8.648;2023-04-03T06:56:54;7.88;;;2.08;;
72261;SDS011;60173;52.112;8.648;2023-04-03T06:59:20;10.68;;;2.17;;
72261;SDS011;60173;52.112;8.648;2023-04-03T07:01:46;8.85;;;2.03;;
72261;SDS011;60173;52.112;8.648;2023-04-03T07:04:13;8.13;;;2.30;;
72261;SDS011;60173;52.112;8.648;2023-04-03T07:06:39;7.15;;;2.25;;
72261;SDS011;60173;52.112;8.648;2023-04-03T07:09:06;7.80;;;1.98;;
72261;SDS011;60173;52.112;8.648;2023-04-03T07:11:32;6.30;;;1.70;;
72261;SDS011;60173;52.112;8.648;2023-04-03T07:13:58;6.93;;;1.98;;
72261;SDS011;60173;52.112;8.648;2023-04-03T07:16:24;7.60;;;2.03;;
72261;SDS011;60173;52.112;8.648;2023-04-03T07:18:51;6.85;;;1.55;;
72261;SDS011;60173;52.112;8.648;2023-04-03T07:21:17;6.47;;;2.30;;
72261;SDS011;60173;52.112;8.648;2023-04-03T07:23:44;5.78;;;1.92;;
72261;SDS011;60173;52.112;8.648;2023-04-03T07:26:10;10.02;;;2.22;;
72261;SDS011;60173;52.112;8.648;2023-04-03T07:28:36;4.57;;;1.52;;
72261;SDS011;60173;52.112;8.648;2023-04-03T07:31:04;8.38;;;2.10;;
72261;SDS011;60173;52.112;8.648;2023-04-03T07:33:36;4.60;;;1.90;;
72261;SDS011;60173;52.112;8.648;2023-04-03T07:36:03;5.90;;;1.48;;
72261;SDS011;60173;52.112;8.648;2023-04-03T07:38:31;7.43;;;1.52;;
72261;SDS011;60173;52.112;8.648;2023-04-03T07:40:57;6.15;;;2.10;;
72261;SDS011;60173;52.112;8.648;2023-04-03T07:43:24;8.20;;;1.83;;
72261;SDS011;60173;52.112;8.648;2023-04-03T07:45:50;6.38;;;2.13;;
72261;SDS011;60173;52.112;8.648;2023-04-03T07:48:20;5.72;;;1.88;;
72261;SDS011;60173;52.112;8.648;2023-04-03T07:50:48;6.45;;;1.80;;
72261;SDS011;60173;52.112;8.648;2023-04-03T07:53:15;6.13;;;2.13;;
72261;SDS011;60173;52.112;8.648;2023-04-03T07:55:41;9.85;;;1.90;;
72261;SDS011;60173;52.112;8.648;2023-04-03T07:58:12;8.02;;;2.17;;
72261;SDS011;60173;52.112;8.648;2023-04-03T08:00:40;13.13;;;2.05;;
72261;SDS011;60173;52.112;8.648;2023-04-03T08:03:07;7.78;;;2.40;;
72261;SDS011;60173;52.112;8.648;2023-04-03T08:05:38;8.02;;;2.10;;
72261;SDS011;60173;52.112;8.648;2023-04-03T08:08:05;6.90;;;2.05;;
72261;SDS011;60173;52.112;8.648;2023-04-03T08:10:32;6.82;;;1.80;;
72261;SDS011;60173;52.112;8.648;2023-04-03T08:12:59;9.55;;;2.72;;
72261;SDS011;60173;52.112;8.648;2023-04-03T08:15:27;17.80;;;3.85;;
72261;SDS011;60173;52.112;8.648;2023-04-03T08:17:53;12.30;;;2.67;;
72261;SDS011;60173;52.112;8.648;2023-04-03T08:20:20;7.63;;;2.00;;
72261;SDS011;60173;52.112;8.648;2023-04-03T08:22:47;5.25;;;1.70;;
72261;SDS011;60173;52.112;8.648;2023-04-03T08:25:13;6.97;;;1.83;;
72261;SDS011;60173;52.112;8.648;2023-04-03T08:27:39;7.13;;;1.83;;
72261;SDS011;60173;52.112;8.648;2023-04-03T08:30:06;4.70;;;1.55;;
72261;SDS011;60173;52.112;8.648;2023-04-03T08:32:33;5.05;;;1.90;;
72261;SDS011;60173;52.112;8.648;2023-04-03T08:35:00;7.82;;;2.00;;
72261;SDS011;60173;52.112;8.648;2023-04-03T08:37:26;11.15;;;2.33;;
72261;SDS011;60173;52.112;8.648;2023-04-03T08:39:52;5.68;;;1.83;;
72261;SDS011;60173;52.112;8.648;2023-04-03T08:45:19;5.43;;;1.50;;
72261;SDS011;60173;52.112;8.648;2023-04-03T08:50:34;4.97;;;1.40;;
72261;SDS011;60173;52.112;8.648;2023-04-03T08:53:05;7.57;;;1.95;;
72261;SDS011;60173;52.112;8.648;2023-04-03T08:55:39;8.27;;;2.00;;
72261;SDS011;60173;52.112;8.648;2023-04-03T08:58:15;8.63;;;1.58;;
72261;SDS011;60173;52.112;8.648;2023-04-03T09:00:50;7.07;;;1.75;;
72261;SDS011;60173;52.112;8.648;2023-04-03T09:03:18;10.60;;;2.38;;
72261;SDS011;60173;52.112;8.648;2023-04-03T09:05:51;11.02;;;2.00;;
72261;SDS011;60173;52.112;8.648;2023-04-03T09:08:29;6.22;;;2.00;;
72261;SDS011;60173;52.112;8.648;2023-04-03T09:11:06;5.60;;;1.77;;
72261;SDS011;60173;52.112;8.648;2023-04-03T09:19:13;4.03;;;1.50;;
72261;SDS011;60173;52.112;8.648;2023-04-03T09:21:47;6.15;;;1.27;;
72261;SDS011;60173;52.112;8.648;2023-04-03T09:24:15;5.28;;;1.52;;
72261;SDS011;60173;52.112;8.648;2023-04-03T09:26:45;7.72;;;2.33;;
72261;SDS011;60173;52.112;8.648;2023-04-03T09:29:17;9.02;;;1.90;;
72261;SDS011;60173;52.112;8.648;2023-04-03T09:31:46;5.03;;;1.63;;
72261;SDS011;60173;52.112;8.648;2023-04-03T09:34:18;13.38;;;2.42;;
72261;SDS011;60173;52.112;8.648;2023-04-03T09:36:49;5.25;;;1.50;;
72261;SDS011;60173;52.112;8.648;2023-04-03T09:39:21;4.90;;;1.42;;
72261;SDS011;60173;52.112;8.648;2023-04-03T09:44:58;4.38;;;1.90;;
72261;SDS011;60173;52.112;8.648;2023-04-03T09:47:27;4.40;;;2.03;;
72261;SDS011;60173;52.112;8.648;2023-04-03T09:52:43;9.98;;;1.60;;
72261;SDS011;60173;52.112;8.648;2023-04-03T09:55:15;6.03;;;1.40;;
72261;SDS011;60173;52.112;8.648;2023-04-03T09:57:45;6.78;;;1.95;;
72261;SDS011;60173;52.112;8.648;2023-04-03T10:00:23;6.60;;;1.63;;
72261;SDS011;60173;52.112;8.648;2023-04-03T10:02:53;4.95;;;1.35;;
72261;SDS011;60173;52.112;8.648;2023-04-03T10:05:35;6.40;;;1.73;;
72261;SDS011;60173;52.112;8.648;2023-04-03T10:08:23;5.43;;;1.80;;
72261;SDS011;60173;52.112;8.648;2023-04-03T10:11:05;9.20;;;2.08;;
72261;SDS011;60173;52.112;8.648;2023-04-03T10:13:54;5.43;;;1.48;;
72261;SDS011;60173;52.112;8.648;2023-04-03T10:16:32;7.97;;;1.48;;
72261;SDS011;60173;52.112;8.648;2023-04-03T10:21:50;17.60;;;2.63;;
72261;SDS011;60173;52.112;8.648;2023-04-03T10:24:36;8.40;;;2.08;;
72261;SDS011;60173;52.112;8.648;2023-04-03T10:27:16;6.55;;;1.35;;
72261;SDS011;60173;52.112;8.648;2023-04-03T10:29:59;4.90;;;1.48;;
72261;SDS011;60173;52.112;8.648;2023-04-03T10:32:58;5.03;;;2.00;;
72261;SDS011;60173;52.112;8.648;2023-04-03T10:35:42;5.60;;;1.40;;
72261;SDS011;60173;52.112;8.648;2023-04-03T10:38:20;6.13;;;1.65;;
72261;SDS011;60173;52.112;8.648;2023-04-03T10:40:58;9.30;;;2.90;;
72261;SDS011;60173;52.112;8.648;2023-04-03T10:43:36;8.15;;;1.77;;
72261;SDS011;60173;52.112;8.648;2023-04-03T10:46:21;4.65;;;1.50;;
72261;SDS011;60173;52.112;8.648;2023-04-03T10:48:58;6.85;;;1.92;;
72261;SDS011;60173;52.112;8.648;2023-04-03T10:51:42;6.90;;;1.65;;
72261;SDS011;60173;52.112;8.648;2023-04-03T10:54:40;3.55;;;1.48;;
72261;SDS011;60173;52.112;8.648;2023-04-03T10:57:15;5.15;;;1.83;;
72261;SDS011;60173;52.112;8.648;2023-04-03T10:59:49;4.40;;;1.30;;
72261;SDS011;60173;52.112;8.648;2023-04-03T11:02:30;3.58;;;1.40;;
72261;SDS011;60173;52.112;8.648;2023-04-03T11:05:03;3.00;;;1.20;;
72261;SDS011;60173;52.112;8.648;2023-04-03T11:07:34;3.42;;;1.23;;
72261;SDS011;60173;52.112;8.648;2023-04-03T11:10:05;6.57;;;1.40;;
72261;SDS011;60173;52.112;8.648;2023-04-03T11:12:48;4.70;;;1.45;;
72261;SDS011;60173;52.112;8.648;2023-04-03T11:15:19;1.95;;;1.33;;
72261;SDS011;60173;52.112;8.648;2023-04-03T11:17:55;5.28;;;1.58;;
72261;SDS011;60173;52.112;8.648;2023-04-03T11:20:28;4.40;;;1.40;;
72261;SDS011;60173;52.112;8.648;2023-04-03T11:26:15;4.70;;;1.17;;
72261;SDS011;60173;52.112;8.648;2023-04-03T11:28:42;3.85;;;1.60;;
72261;SDS011;60173;52.112;8.648;2023-04-03T11:31:27;5.05;;;1.70;;
72261;SDS011;60173;52.112;8.648;2023-04-03T11:34:19;6.47;;;1.80;;
72261;SDS011;60173;52.112;8.648;2023-04-03T11:37:05;6.10;;;2.10;;
72261;SDS011;60173;52.112;8.648;2023-04-03T11:42:16;4.78;;;1.25;;
72261;SDS011;60173;52.112;8.648;2023-04-03T11:44:51;6.93;;;1.88;;
72261;SDS011;60173;52.112;8.648;2023-04-03T11:47:52;3.50;;;1.00;;
72261;SDS011;60173;52.112;8.648;2023-04-03T11:53:00;3.83;;;1.27;;
72261;SDS011;60173;52.112;8.648;2023-04-03T12:00:45;7.53;;;1.70;;
72261;SDS011;60173;52.112;8.648;2023-04-03T12:05:49;5.72;;;1.20;;
72261;SDS011;60173;52.112;8.648;2023-04-03T12:13:36;7.55;;;1.70;;
72261;SDS011;60173;52.112;8.648;2023-04-03T12:16:20;8.52;;;1.40;;
72261;SDS011;60173;52.112;8.648;2023-04-03T12:35:23;7.97;;;2.10;;
72261;SDS011;60173;52.112;8.648;2023-04-03T12:48:24;9.20;;;1.40;;
72261;SDS011;60173;52.112;8.648;2023-04-03T12:50:53;4.85;;;1.55;;
72261;SDS011;60173;52.112;8.648;2023-04-03T12:53:56;3.35;;;1.33;;
72261;SDS011;60173;52.112;8.648;2023-04-03T13:01:59;5.03;;;1.60;;
72261;SDS011;60173;52.112;8.648;2023-04-03T13:04:28;7.30;;;2.80;;
72261;SDS011;60173;52.112;8.648;2023-04-03T13:06:56;3.45;;;1.00;;
72261;SDS011;60173;52.112;8.648;2023-04-03T13:09:28;2.63;;;1.00;;
72261;SDS011;60173;52.112;8.648;2023-04-03T13:11:58;3.20;;;1.23;;
72261;SDS011;60173;52.112;8.648;2023-04-03T13:14:26;4.35;;;1.45;;
72261;SDS011;60173;52.112;8.648;2023-04-03T13:19:43;7.28;;;1.27;;
72261;SDS011;60173;52.112;8.648;2023-04-03T13:25:06;3.78;;;1.33;;
72261;SDS011;60173;52.112;8.648;2023-04-03T13:27:37;3.80;;;1.20;;
72261;SDS011;60173;52.112;8.648;2023-04-03T13:30:05;5.35;;;1.33;;
72261;SDS011;60173;52.112;8.648;2023-04-03T13:32:32;2.35;;;1.17;;
72261;SDS011;60173;52.112;8.648;2023-04-03T13:34:58;4.47;;;1.48;;
72261;SDS011;60173;52.112;8.648;2023-04-03T13:37:52;3.50;;;1.27;;
72261;SDS011;60173;52.112;8.648;2023-04-03T13:40:21;7.18;;;1.60;;
72261;SDS011;60173;52.112;8.648;2023-04-03T13:42:57;2.80;;;0.90;;
72261;SDS011;60173;52.112;8.648;2023-04-03T13:45:32;6.38;;;1.20;;
72261;SDS011;60173;52.112;8.648;2023-04-03T13:48:34;4.25;;;1.23;;
72261;SDS011;60173;52.112;8.648;2023-04-03T13:51:04;4.28;;;1.30;;
72261;SDS011;60173;52.112;8.648;2023-04-03T13:53:44;6.00;;;1.70;;
72261;SDS011;60173;52.112;8.648;2023-04-03T14:01:50;4.40;;;1.48;;
72261;SDS011;60173;52.112;8.648;2023-04-03T14:04:24;2.85;;;1.40;;
72261;SDS011;60173;52.112;8.648;2023-04-03T14:06:53;5.05;;;1.40;;
72261;SDS011;60173;52.112;8.648;2023-04-03T14:09:21;5.60;;;1.92;;
72261;SDS011;60173;52.112;8.648;2023-04-03T14:11:49;4.47;;;1.30;;
72261;SDS011;60173;52.112;8.648;2023-04-03T14:14:20;3.10;;;1.45;;
72261;SDS011;60173;52.112;8.648;2023-04-03T14:16:53;4.30;;;1.48;;
72261;SDS011;60173;52.112;8.648;2023-04-03T14:19:26;2.30;;;1.20;;
72261;SDS011;60173;52.112;8.648;2023-04-03T14:21:55;7.30;;;1.60;;
72261;SDS011;60173;52.112;8.648;2023-04-03T14:24:22;2.40;;;1.30;;
72261;SDS011;60173;52.112;8.648;2023-04-03T14:26:50;3.65;;;1.50;;
72261;SDS011;60173;52.112;8.648;2023-04-03T14:29:18;3.28;;;1.40;;
72261;SDS011;60173;52.112;8.648;2023-04-03T14:31:46;7.18;;;1.63;;
72261;SDS011;60173;52.112;8.648;2023-04-03T14:34:15;2.47;;;1.33;;
72261;SDS011;60173;52.112;8.648;2023-04-03T14:36:42;5.28;;;1.52;;
72261;SDS011;60173;52.112;8.648;2023-04-03T14:39:11;3.47;;;1.48;;
72261;SDS011;60173;52.112;8.648;2023-04-03T14:41:43;3.67;;;1.30;;
72261;SDS011;60173;52.112;8.648;2023-04-03T14:44:09;4.20;;;1.50;;
72261;SDS011;60173;52.112;8.648;2023-04-03T14:46:37;3.70;;;1.30;;
72261;SDS011;60173;52.112;8.648;2023-04-03T14:49:22;2.88;;;1.08;;
72261;SDS011;60173;52.112;8.648;2023-04-03T14:51:51;3.08;;;1.73;;
72261;SDS011;60173;52.112;8.648;2023-04-03T14:54:19;3.38;;;1.52;;
72261;SDS011;60173;52.112;8.648;2023-04-03T14:56:46;3.33;;;1.58;;
72261;SDS011;60173;52.112;8.648;2023-04-03T14:59:14;4.85;;;1.70;;
72261;SDS011;60173;52.112;8.648;2023-04-03T15:01:40;3.63;;;2.63;;
72261;SDS011;60173;52.112;8.648;2023-04-03T15:04:12;4.15;;;1.83;;
72261;SDS011;60173;52.112;8.648;2023-04-03T15:06:40;5.90;;;1.50;;
72261;SDS011;60173;52.112;8.648;2023-04-03T15:09:18;4.38;;;1.75;;
72261;SDS011;60173;52.112;8.648;2023-04-03T15:11:47;4.72;;;1.40;;
72261;SDS011;60173;52.112;8.648;2023-04-03T15:14:15;2.00;;;1.20;;
72261;SDS011;60173;52.112;8.648;2023-04-03T15:17:00;6.60;;;1.60;;
72261;SDS011;60173;52.112;8.648;2023-04-03T15:19:27;2.88;;;1.35;;
72261;SDS011;60173;52.112;8.648;2023-04-03T15:21:53;3.55;;;1.25;;
72261;SDS011;60173;52.112;8.648;2023-04-03T15:24:19;4.13;;;1.40;;
72261;SDS011;60173;52.112;8.648;2023-04-03T15:26:46;5.57;;;1.45;;
72261;SDS011;60173;52.112;8.648;2023-04-03T15:29:12;4.65;;;1.52;;
72261;SDS011;60173;52.112;8.648;2023-04-03T15:31:38;4.95;;;1.63;;
72261;SDS011;60173;52.112;8.648;2023-04-03T15:34:05;3.33;;;1.55;;
72261;SDS011;60173;52.112;8.648;2023-04-03T15:36:31;3.97;;;1.50;;
72261;SDS011;60173;52.112;8.648;2023-04-03T15:39:00;3.92;;;1.30;;
72261;SDS011;60173;52.112;8.648;2023-04-03T15:41:26;4.35;;;1.42;;
72261;SDS011;60173;52.112;8.648;2023-04-03T15:43:52;5.93;;;1.58;;
72261;SDS011;60173;52.112;8.648;2023-04-03T15:46:19;3.42;;;1.40;;
72261;SDS011;60173;52.112;8.648;2023-04-03T15:48:45;4.28;;;1.40;;
72261;SDS011;60173;52.112;8.648;2023-04-03T15:51:12;4.07;;;1.50;;
72261;SDS011;60173;52.112;8.648;2023-04-03T15:53:38;6.97;;;1.83;;
72261;SDS011;60173;52.112;8.648;2023-04-03T15:56:04;8.27;;;2.85;;
72261;SDS011;60173;52.112;8.648;2023-04-03T15:58:31;3.45;;;1.73;;
72261;SDS011;60173;52.112;8.648;2023-04-03T16:00:57;6.07;;;1.65;;
72261;SDS011;60173;52.112;8.648;2023-04-03T16:03:23;8.18;;;3.70;;
72261;SDS011;60173;52.112;8.648;2023-04-03T16:05:50;2.92;;;1.55;;
72261;SDS011;60173;52.112;8.648;2023-04-03T16:08:17;4.00;;;1.38;;
72261;SDS011;60173;52.112;8.648;2023-04-03T16:10:44;6.22;;;1.73;;
72261;SDS011;60173;52.112;8.648;2023-04-03T16:13:10;3.35;;;1.60;;
72261;SDS011;60173;52.112;8.648;2023-04-03T16:15:37;3.22;;;1.25;;
72261;SDS011;60173;52.112;8.648;2023-04-03T16:18:04;4.28;;;1.45;;
72261;SDS011;60173;52.112;8.648;2023-04-03T16:20:31;5.15;;;1.58;;
72261;SDS011;60173;52.112;8.648;2023-04-03T16:22:58;3.38;;;1.30;;
72261;SDS011;60173;52.112;8.648;2023-04-03T16:25:26;4.60;;;1.70;;
72261;SDS011;60173;52.112;8.648;2023-04-03T16:27:52;4.57;;;1.50;;
72261;SDS011;60173;52.112;8.648;2023-04-03T16:30:19;4.80;;;1.25;;